sensor_id;sensor_type;location;lat;lon;timestamp;P1;durP1;ratioP1;P2;durP2;ratioP2
22929;SDS011;11630;42.660;23.292;2024-02-23T00:02:23;25.30;;;15.43;;
22929;SDS011;11630;42.660;23.292;2024-02-23T00:05:05;20.47;;;15.80;;
22929;SDS011;11630;42.660;23.292;2024-02-23T00:07:46;24.37;;;14.30;;
22929;SDS011;11630;42.660;23.292;2024-02-23T00:10:25;20.67;;;14.10;;
22929;SDS011;11630;42.660;23.292;2024-02-23T00:12:50;23.67;;;15.43;;
22929;SDS011;11630;42.660;23.292;2024-02-23T00:15:24;22.73;;;15.20;;
22929;SDS011;11630;42.660;23.292;2024-02-23T00:17:58;26.77;;;15.40;;
22929;SDS011;11630;42.660;23.292;2024-02-23T00:20:29;22.80;;;14.57;;
22929;SDS011;11630;42.660;23.292;2024-02-23T00:23:00;23.10;;;15.03;;
22929;SDS011;11630;42.660;23.292;2024-02-23T00:25:42;20.57;;;14.93;;
22929;SDS011;11630;42.660;23.292;2024-02-23T00:28:33;25.03;;;15.07;;
22929;SDS011;11630;42.660;23.292;2024-02-23T00:30:51;22.53;;;15.23;;
22929;SDS011;11630;42.660;23.292;2024-02-23T00:33:22;18.67;;;14.17;;
22929;SDS011;11630;42.660;23.292;2024-02-23T00:35:56;16.90;;;13.37;;
22929;SDS011;11630;42.660;23.292;2024-02-23T00:38:34;20.70;;;13.87;;
22929;SDS011;11630;42.660;23.292;2024-02-23T00:41:07;20.50;;;14.43;;
22929;SDS011;11630;42.660;23.292;2024-02-23T00:43:47;22.60;;;14.10;;
22929;SDS011;11630;42.660;23.292;2024-02-23T00:46:33;17.13;;;12.20;;
22929;SDS011;11630;42.660;23.292;2024-02-23T00:48:55;19.50;;;11.83;;
22929;SDS011;11630;42.660;23.292;2024-02-23T00:51:28;16.30;;;10.83;;
22929;SDS011;11630;42.660;23.292;2024-02-23T00:53:59;17.37;;;11.43;;
22929;SDS011;11630;42.660;23.292;2024-02-23T00:56:29;18.37;;;10.73;;
22929;SDS011;11630;42.660;23.292;2024-02-23T00:59:00;17.40;;;12.60;;
22929;SDS011;11630;42.660;23.292;2024-02-23T01:01:30;17.63;;;10.80;;
22929;SDS011;11630;42.660;23.292;2024-02-23T01:04:01;18.10;;;11.43;;
22929;SDS011;11630;42.660;23.292;2024-02-23T01:06:30;16.03;;;10.73;;
22929;SDS011;11630;42.660;23.292;2024-02-23T01:09:01;17.27;;;11.80;;
22929;SDS011;11630;42.660;23.292;2024-02-23T01:11:32;16.30;;;11.50;;
22929;SDS011;11630;42.660;23.292;2024-02-23T01:14:04;17.03;;;11.63;;
22929;SDS011;11630;42.660;23.292;2024-02-23T01:16:35;16.40;;;11.30;;
22929;SDS011;11630;42.660;23.292;2024-02-23T01:19:05;16.47;;;11.97;;
22929;SDS011;11630;42.660;23.292;2024-02-23T01:21:36;13.63;;;10.27;;
22929;SDS011;11630;42.660;23.292;2024-02-23T01:24:07;15.07;;;9.93;;
22929;SDS011;11630;42.660;23.292;2024-02-23T01:26:37;15.87;;;9.93;;
22929;SDS011;11630;42.660;23.292;2024-02-23T01:29:09;15.27;;;11.07;;
22929;SDS011;11630;42.660;23.292;2024-02-23T01:31:47;14.57;;;10.67;;
22929;SDS011;11630;42.660;23.292;2024-02-23T01:34:18;12.00;;;9.47;;
22929;SDS011;11630;42.660;23.292;2024-02-23T01:36:49;13.30;;;9.73;;
22929;SDS011;11630;42.660;23.292;2024-02-23T01:39:19;15.03;;;10.27;;
22929;SDS011;11630;42.660;23.292;2024-02-23T01:41:50;17.17;;;10.23;;
22929;SDS011;11630;42.660;23.292;2024-02-23T01:44:21;15.03;;;10.50;;
22929;SDS011;11630;42.660;23.292;2024-02-23T01:46:51;11.77;;;9.37;;
22929;SDS011;11630;42.660;23.292;2024-02-23T01:49:23;12.40;;;9.23;;
22929;SDS011;11630;42.660;23.292;2024-02-23T01:51:53;13.07;;;9.07;;
22929;SDS011;11630;42.660;23.292;2024-02-23T01:54:26;13.67;;;10.30;;
22929;SDS011;11630;42.660;23.292;2024-02-23T01:56:59;13.17;;;9.20;;
22929;SDS011;11630;42.660;23.292;2024-02-23T01:59:28;9.77;;;8.47;;
22929;SDS011;11630;42.660;23.292;2024-02-23T02:01:59;15.63;;;9.37;;
22929;SDS011;11630;42.660;23.292;2024-02-23T02:04:30;12.57;;;9.30;;
22929;SDS011;11630;42.660;23.292;2024-02-23T02:07:00;13.50;;;9.50;;
22929;SDS011;11630;42.660;23.292;2024-02-23T02:09:31;13.40;;;9.37;;
22929;SDS011;11630;42.660;23.292;2024-02-23T02:12:03;12.27;;;9.53;;
22929;SDS011;11630;42.660;23.292;2024-02-23T02:14:34;13.70;;;9.47;;
22929;SDS011;11630;42.660;23.292;2024-02-23T02:17:04;11.97;;;8.50;;
22929;SDS011;11630;42.660;23.292;2024-02-23T02:19:35;13.40;;;10.33;;
22929;SDS011;11630;42.660;23.292;2024-02-23T02:22:06;13.40;;;9.77;;
22929;SDS011;11630;42.660;23.292;2024-02-23T02:24:37;9.93;;;8.37;;
22929;SDS011;11630;42.660;23.292;2024-02-23T02:27:09;11.90;;;9.10;;
22929;SDS011;11630;42.660;23.292;2024-02-23T02:29:39;14.77;;;9.10;;
22929;SDS011;11630;42.660;23.292;2024-02-23T02:32:10;12.80;;;10.10;;
22929;SDS011;11630;42.660;23.292;2024-02-23T02:34:41;11.03;;;9.37;;
22929;SDS011;11630;42.660;23.292;2024-02-23T02:37:12;12.97;;;9.07;;
22929;SDS011;11630;42.660;23.292;2024-02-23T02:39:43;11.67;;;9.33;;
22929;SDS011;11630;42.660;23.292;2024-02-23T02:42:14;14.53;;;9.90;;
22929;SDS011;11630;42.660;23.292;2024-02-23T02:44:45;13.30;;;10.47;;
22929;SDS011;11630;42.660;23.292;2024-02-23T02:47:16;14.33;;;10.07;;
22929;SDS011;11630;42.660;23.292;2024-02-23T02:49:47;15.37;;;9.77;;
22929;SDS011;11630;42.660;23.292;2024-02-23T02:52:17;14.70;;;10.03;;
22929;SDS011;11630;42.660;23.292;2024-02-23T02:54:48;15.57;;;10.53;;
22929;SDS011;11630;42.660;23.292;2024-02-23T02:57:20;15.30;;;10.77;;
22929;SDS011;11630;42.660;23.292;2024-02-23T02:59:51;15.17;;;10.57;;
22929;SDS011;11630;42.660;23.292;2024-02-23T03:02:22;16.10;;;10.87;;
22929;SDS011;11630;42.660;23.292;2024-02-23T03:04:52;19.00;;;10.60;;
22929;SDS011;11630;42.660;23.292;2024-02-23T03:07:24;15.43;;;10.17;;
22929;SDS011;11630;42.660;23.292;2024-02-23T03:09:55;13.77;;;9.90;;
22929;SDS011;11630;42.660;23.292;2024-02-23T03:12:25;14.03;;;10.20;;
22929;SDS011;11630;42.660;23.292;2024-02-23T03:14:56;15.70;;;10.00;;
22929;SDS011;11630;42.660;23.292;2024-02-23T03:17:26;16.77;;;11.43;;
22929;SDS011;11630;42.660;23.292;2024-02-23T03:19:57;11.83;;;10.07;;
22929;SDS011;11630;42.660;23.292;2024-02-23T03:22:28;12.57;;;9.80;;
22929;SDS011;11630;42.660;23.292;2024-02-23T03:24:59;13.90;;;10.43;;
22929;SDS011;11630;42.660;23.292;2024-02-23T03:27:36;14.43;;;10.83;;
22929;SDS011;11630;42.660;23.292;2024-02-23T03:30:05;20.23;;;10.50;;
22929;SDS011;11630;42.660;23.292;2024-02-23T03:32:36;14.00;;;10.30;;
22929;SDS011;11630;42.660;23.292;2024-02-23T03:35:07;22.93;;;11.10;;
22929;SDS011;11630;42.660;23.292;2024-02-23T03:37:38;13.63;;;9.83;;
22929;SDS011;11630;42.660;23.292;2024-02-23T03:40:10;14.37;;;10.97;;
22929;SDS011;11630;42.660;23.292;2024-02-23T03:42:40;15.73;;;11.43;;
22929;SDS011;11630;42.660;23.292;2024-02-23T03:45:11;15.37;;;10.90;;
22929;SDS011;11630;42.660;23.292;2024-02-23T03:47:41;15.07;;;9.97;;
22929;SDS011;11630;42.660;23.292;2024-02-23T03:50:12;12.23;;;9.33;;
22929;SDS011;11630;42.660;23.292;2024-02-23T03:52:44;18.07;;;12.07;;
22929;SDS011;11630;42.660;23.292;2024-02-23T03:55:14;17.83;;;13.70;;
22929;SDS011;11630;42.660;23.292;2024-02-23T03:57:45;16.17;;;11.47;;
22929;SDS011;11630;42.660;23.292;2024-02-23T04:00:15;15.40;;;11.23;;
22929;SDS011;11630;42.660;23.292;2024-02-23T04:02:45;16.80;;;11.47;;
22929;SDS011;11630;42.660;23.292;2024-02-23T04:05:16;18.63;;;12.60;;
22929;SDS011;11630;42.660;23.292;2024-02-23T04:07:47;18.30;;;12.57;;
22929;SDS011;11630;42.660;23.292;2024-02-23T04:10:18;20.03;;;12.67;;
22929;SDS011;11630;42.660;23.292;2024-02-23T04:12:49;16.27;;;11.70;;
22929;SDS011;11630;42.660;23.292;2024-02-23T04:15:20;18.03;;;11.63;;
22929;SDS011;11630;42.660;23.292;2024-02-23T04:17:51;19.47;;;13.13;;
22929;SDS011;11630;42.660;23.292;2024-02-23T04:20:22;14.50;;;11.33;;
22929;SDS011;11630;42.660;23.292;2024-02-23T04:22:53;16.77;;;10.63;;
22929;SDS011;11630;42.660;23.292;2024-02-23T04:25:24;13.57;;;10.50;;
22929;SDS011;11630;42.660;23.292;2024-02-23T04:27:55;15.67;;;11.20;;
22929;SDS011;11630;42.660;23.292;2024-02-23T04:30:27;16.07;;;10.50;;
22929;SDS011;11630;42.660;23.292;2024-02-23T04:32:57;24.53;;;10.93;;
22929;SDS011;11630;42.660;23.292;2024-02-23T04:35:28;14.53;;;10.90;;
22929;SDS011;11630;42.660;23.292;2024-02-23T04:37:59;15.53;;;11.17;;
22929;SDS011;11630;42.660;23.292;2024-02-23T04:40:31;13.73;;;10.20;;
22929;SDS011;11630;42.660;23.292;2024-02-23T04:43:02;11.90;;;9.90;;
22929;SDS011;11630;42.660;23.292;2024-02-23T04:45:33;13.27;;;10.13;;
22929;SDS011;11630;42.660;23.292;2024-02-23T04:48:05;14.83;;;10.70;;
22929;SDS011;11630;42.660;23.292;2024-02-23T04:50:35;12.57;;;10.47;;
22929;SDS011;11630;42.660;23.292;2024-02-23T04:53:06;13.40;;;10.20;;
22929;SDS011;11630;42.660;23.292;2024-02-23T04:55:37;14.97;;;10.67;;
22929;SDS011;11630;42.660;23.292;2024-02-23T04:58:07;13.10;;;10.23;;
22929;SDS011;11630;42.660;23.292;2024-02-23T05:00:38;12.83;;;10.97;;
22929;SDS011;11630;42.660;23.292;2024-02-23T05:03:09;20.60;;;11.30;;
22929;SDS011;11630;42.660;23.292;2024-02-23T05:05:40;14.03;;;10.27;;
22929;SDS011;11630;42.660;23.292;2024-02-23T05:08:11;13.93;;;10.73;;
22929;SDS011;11630;42.660;23.292;2024-02-23T05:10:41;16.80;;;10.97;;
22929;SDS011;11630;42.660;23.292;2024-02-23T05:13:13;17.17;;;12.13;;
22929;SDS011;11630;42.660;23.292;2024-02-23T05:15:43;14.87;;;11.13;;
22929;SDS011;11630;42.660;23.292;2024-02-23T05:18:14;18.33;;;12.40;;
22929;SDS011;11630;42.660;23.292;2024-02-23T05:20:45;16.97;;;11.93;;
22929;SDS011;11630;42.660;23.292;2024-02-23T05:23:16;21.33;;;12.37;;
22929;SDS011;11630;42.660;23.292;2024-02-23T05:25:46;27.47;;;12.97;;
22929;SDS011;11630;42.660;23.292;2024-02-23T05:28:17;18.07;;;11.77;;
22929;SDS011;11630;42.660;23.292;2024-02-23T05:30:48;18.20;;;12.53;;
22929;SDS011;11630;42.660;23.292;2024-02-23T05:33:19;19.27;;;13.40;;
22929;SDS011;11630;42.660;23.292;2024-02-23T05:35:50;19.87;;;12.83;;
22929;SDS011;11630;42.660;23.292;2024-02-23T05:38:20;22.97;;;13.37;;
22929;SDS011;11630;42.660;23.292;2024-02-23T05:40:50;19.63;;;13.70;;
22929;SDS011;11630;42.660;23.292;2024-02-23T05:43:21;18.27;;;13.00;;
22929;SDS011;11630;42.660;23.292;2024-02-23T05:45:52;19.97;;;12.97;;
22929;SDS011;11630;42.660;23.292;2024-02-23T05:48:23;28.27;;;12.77;;
22929;SDS011;11630;42.660;23.292;2024-02-23T05:50:53;21.93;;;14.23;;
22929;SDS011;11630;42.660;23.292;2024-02-23T05:53:24;18.40;;;13.83;;
22929;SDS011;11630;42.660;23.292;2024-02-23T05:55:55;19.83;;;14.07;;
22929;SDS011;11630;42.660;23.292;2024-02-23T05:58:26;22.27;;;13.80;;
22929;SDS011;11630;42.660;23.292;2024-02-23T06:00:57;22.10;;;13.03;;
22929;SDS011;11630;42.660;23.292;2024-02-23T06:03:29;23.70;;;14.70;;
22929;SDS011;11630;42.660;23.292;2024-02-23T06:06:00;20.63;;;13.70;;
22929;SDS011;11630;42.660;23.292;2024-02-23T06:08:31;20.27;;;13.90;;
22929;SDS011;11630;42.660;23.292;2024-02-23T06:11:02;17.60;;;13.20;;
22929;SDS011;11630;42.660;23.292;2024-02-23T06:13:32;26.90;;;13.03;;
22929;SDS011;11630;42.660;23.292;2024-02-23T06:16:03;20.90;;;13.20;;
22929;SDS011;11630;42.660;23.292;2024-02-23T06:18:35;20.10;;;12.43;;
22929;SDS011;11630;42.660;23.292;2024-02-23T06:21:15;24.07;;;13.10;;
22929;SDS011;11630;42.660;23.292;2024-02-23T06:23:47;20.20;;;13.00;;
22929;SDS011;11630;42.660;23.292;2024-02-23T06:26:18;21.43;;;13.07;;
22929;SDS011;11630;42.660;23.292;2024-02-23T06:28:49;18.57;;;13.30;;
22929;SDS011;11630;42.660;23.292;2024-02-23T06:31:18;21.73;;;13.17;;
22929;SDS011;11630;42.660;23.292;2024-02-23T06:33:50;20.27;;;13.57;;
22929;SDS011;11630;42.660;23.292;2024-02-23T06:36:20;18.97;;;13.00;;
22929;SDS011;11630;42.660;23.292;2024-02-23T06:38:50;24.43;;;13.20;;
22929;SDS011;11630;42.660;23.292;2024-02-23T06:41:21;24.90;;;14.23;;
22929;SDS011;11630;42.660;23.292;2024-02-23T06:43:52;23.90;;;14.03;;
22929;SDS011;11630;42.660;23.292;2024-02-23T06:46:22;28.03;;;13.57;;
22929;SDS011;11630;42.660;23.292;2024-02-23T06:48:53;23.47;;;13.87;;
22929;SDS011;11630;42.660;23.292;2024-02-23T06:51:25;25.37;;;13.60;;
22929;SDS011;11630;42.660;23.292;2024-02-23T06:53:57;20.93;;;12.47;;
22929;SDS011;11630;42.660;23.292;2024-02-23T06:56:28;16.10;;;12.03;;
22929;SDS011;11630;42.660;23.292;2024-02-23T06:58:58;18.70;;;12.67;;
22929;SDS011;11630;42.660;23.292;2024-02-23T07:01:29;18.10;;;12.23;;
22929;SDS011;11630;42.660;23.292;2024-02-23T07:04:01;19.00;;;12.40;;
22929;SDS011;11630;42.660;23.292;2024-02-23T07:06:31;18.13;;;12.53;;
22929;SDS011;11630;42.660;23.292;2024-02-23T07:09:03;19.50;;;12.57;;
22929;SDS011;11630;42.660;23.292;2024-02-23T07:11:34;19.70;;;12.70;;
22929;SDS011;11630;42.660;23.292;2024-02-23T07:14:04;18.87;;;12.20;;
22929;SDS011;11630;42.660;23.292;2024-02-23T07:16:38;19.67;;;12.50;;
22929;SDS011;11630;42.660;23.292;2024-02-23T07:19:07;22.23;;;12.77;;
22929;SDS011;11630;42.660;23.292;2024-02-23T07:21:38;23.90;;;12.90;;
22929;SDS011;11630;42.660;23.292;2024-02-23T07:24:09;18.07;;;12.67;;
22929;SDS011;11630;42.660;23.292;2024-02-23T07:26:39;26.77;;;14.27;;
22929;SDS011;11630;42.660;23.292;2024-02-23T07:29:11;25.27;;;14.17;;
22929;SDS011;11630;42.660;23.292;2024-02-23T07:31:43;26.27;;;14.13;;
22929;SDS011;11630;42.660;23.292;2024-02-23T07:34:14;28.00;;;13.53;;
22929;SDS011;11630;42.660;23.292;2024-02-23T07:36:44;22.30;;;14.20;;
22929;SDS011;11630;42.660;23.292;2024-02-23T07:39:16;31.60;;;15.40;;
22929;SDS011;11630;42.660;23.292;2024-02-23T07:41:47;21.07;;;12.90;;
22929;SDS011;11630;42.660;23.292;2024-02-23T07:44:17;21.97;;;13.17;;
22929;SDS011;11630;42.660;23.292;2024-02-23T07:46:57;19.67;;;12.60;;
22929;SDS011;11630;42.660;23.292;2024-02-23T07:49:22;16.07;;;12.40;;
22929;SDS011;11630;42.660;23.292;2024-02-23T07:51:54;21.17;;;12.47;;
22929;SDS011;11630;42.660;23.292;2024-02-23T07:54:24;18.70;;;12.63;;
22929;SDS011;11630;42.660;23.292;2024-02-23T07:56:55;18.23;;;11.63;;
22929;SDS011;11630;42.660;23.292;2024-02-23T07:59:26;19.00;;;11.60;;
22929;SDS011;11630;42.660;23.292;2024-02-23T08:01:57;24.43;;;14.73;;
22929;SDS011;11630;42.660;23.292;2024-02-23T08:04:29;18.30;;;12.00;;
22929;SDS011;11630;42.660;23.292;2024-02-23T08:07:04;23.97;;;13.00;;
22929;SDS011;11630;42.660;23.292;2024-02-23T08:09:33;21.17;;;12.53;;
22929;SDS011;11630;42.660;23.292;2024-02-23T08:12:05;20.53;;;13.33;;
22929;SDS011;11630;42.660;23.292;2024-02-23T08:14:36;21.20;;;13.10;;
22929;SDS011;11630;42.660;23.292;2024-02-23T08:17:07;21.30;;;12.07;;
22929;SDS011;11630;42.660;23.292;2024-02-23T08:19:38;18.83;;;12.63;;
22929;SDS011;11630;42.660;23.292;2024-02-23T08:22:09;21.27;;;12.37;;
22929;SDS011;11630;42.660;23.292;2024-02-23T08:24:41;19.40;;;11.40;;
22929;SDS011;11630;42.660;23.292;2024-02-23T08:27:12;19.80;;;12.67;;
22929;SDS011;11630;42.660;23.292;2024-02-23T08:29:42;17.27;;;11.67;;
22929;SDS011;11630;42.660;23.292;2024-02-23T08:32:13;17.53;;;12.80;;
22929;SDS011;11630;42.660;23.292;2024-02-23T08:34:44;19.30;;;11.63;;
22929;SDS011;11630;42.660;23.292;2024-02-23T08:37:16;14.63;;;12.00;;
22929;SDS011;11630;42.660;23.292;2024-02-23T08:39:47;18.73;;;13.57;;
22929;SDS011;11630;42.660;23.292;2024-02-23T08:42:18;27.33;;;14.07;;
22929;SDS011;11630;42.660;23.292;2024-02-23T08:44:49;12.93;;;9.77;;
22929;SDS011;11630;42.660;23.292;2024-02-23T08:47:20;14.30;;;9.73;;
22929;SDS011;11630;42.660;23.292;2024-02-23T08:49:52;13.37;;;9.37;;
22929;SDS011;11630;42.660;23.292;2024-02-23T08:52:22;19.13;;;10.83;;
22929;SDS011;11630;42.660;23.292;2024-02-23T08:54:52;21.50;;;11.27;;
22929;SDS011;11630;42.660;23.292;2024-02-23T08:57:22;22.20;;;10.53;;
22929;SDS011;11630;42.660;23.292;2024-02-23T08:59:53;17.67;;;10.30;;
22929;SDS011;11630;42.660;23.292;2024-02-23T09:02:24;13.43;;;9.83;;
22929;SDS011;11630;42.660;23.292;2024-02-23T09:04:55;19.57;;;11.03;;
22929;SDS011;11630;42.660;23.292;2024-02-23T09:07:26;18.87;;;10.93;;
22929;SDS011;11630;42.660;23.292;2024-02-23T09:09:57;16.20;;;10.53;;
22929;SDS011;11630;42.660;23.292;2024-02-23T09:12:27;12.30;;;9.30;;
22929;SDS011;11630;42.660;23.292;2024-02-23T09:14:58;12.63;;;8.67;;
22929;SDS011;11630;42.660;23.292;2024-02-23T09:17:28;14.00;;;8.00;;
22929;SDS011;11630;42.660;23.292;2024-02-23T09:19:58;9.03;;;7.23;;
22929;SDS011;11630;42.660;23.292;2024-02-23T09:22:29;14.53;;;7.20;;
22929;SDS011;11630;42.660;23.292;2024-02-23T09:24:59;10.90;;;6.50;;
22929;SDS011;11630;42.660;23.292;2024-02-23T09:27:30;9.30;;;6.20;;
22929;SDS011;11630;42.660;23.292;2024-02-23T09:30:00;8.33;;;6.20;;
22929;SDS011;11630;42.660;23.292;2024-02-23T09:32:31;6.73;;;5.43;;
22929;SDS011;11630;42.660;23.292;2024-02-23T09:35:02;9.67;;;6.47;;
22929;SDS011;11630;42.660;23.292;2024-02-23T09:37:33;8.73;;;5.03;;
22929;SDS011;11630;42.660;23.292;2024-02-23T09:40:03;8.83;;;5.60;;
22929;SDS011;11630;42.660;23.292;2024-02-23T09:42:33;10.33;;;5.53;;
22929;SDS011;11630;42.660;23.292;2024-02-23T09:45:04;8.67;;;5.27;;
22929;SDS011;11630;42.660;23.292;2024-02-23T09:47:37;8.80;;;4.80;;
22929;SDS011;11630;42.660;23.292;2024-02-23T09:50:09;9.07;;;3.77;;
22929;SDS011;11630;42.660;23.292;2024-02-23T09:52:41;10.93;;;5.60;;
22929;SDS011;11630;42.660;23.292;2024-02-23T09:55:11;5.03;;;4.10;;
22929;SDS011;11630;42.660;23.292;2024-02-23T09:57:41;8.43;;;3.80;;
22929;SDS011;11630;42.660;23.292;2024-02-23T10:00:16;5.43;;;4.10;;
22929;SDS011;11630;42.660;23.292;2024-02-23T10:02:47;5.10;;;3.40;;
22929;SDS011;11630;42.660;23.292;2024-02-23T10:05:19;6.80;;;3.33;;
22929;SDS011;11630;42.660;23.292;2024-02-23T10:07:52;5.03;;;4.17;;
22929;SDS011;11630;42.660;23.292;2024-02-23T10:10:30;6.13;;;3.80;;
22929;SDS011;11630;42.660;23.292;2024-02-23T10:13:01;7.90;;;3.80;;
22929;SDS011;11630;42.660;23.292;2024-02-23T10:15:32;6.77;;;4.07;;
22929;SDS011;11630;42.660;23.292;2024-02-23T10:18:04;5.10;;;4.00;;
22929;SDS011;11630;42.660;23.292;2024-02-23T10:20:35;4.67;;;3.30;;
22929;SDS011;11630;42.660;23.292;2024-02-23T10:23:07;8.17;;;3.73;;
22929;SDS011;11630;42.660;23.292;2024-02-23T10:25:37;12.47;;;3.80;;
22929;SDS011;11630;42.660;23.292;2024-02-23T10:28:08;3.73;;;3.00;;
22929;SDS011;11630;42.660;23.292;2024-02-23T10:30:39;4.37;;;3.53;;
22929;SDS011;11630;42.660;23.292;2024-02-23T10:33:10;3.00;;;2.70;;
22929;SDS011;11630;42.660;23.292;2024-02-23T10:35:41;6.67;;;3.60;;
22929;SDS011;11630;42.660;23.292;2024-02-23T10:38:19;3.63;;;3.00;;
22929;SDS011;11630;42.660;23.292;2024-02-23T10:40:47;4.67;;;3.20;;
22929;SDS011;11630;42.660;23.292;2024-02-23T10:43:19;5.97;;;2.93;;
22929;SDS011;11630;42.660;23.292;2024-02-23T10:45:51;4.33;;;3.00;;
22929;SDS011;11630;42.660;23.292;2024-02-23T10:48:22;3.00;;;2.70;;
22929;SDS011;11630;42.660;23.292;2024-02-23T10:50:55;5.10;;;3.20;;
22929;SDS011;11630;42.660;23.292;2024-02-23T10:53:26;3.00;;;2.73;;
22929;SDS011;11630;42.660;23.292;2024-02-23T10:55:57;5.40;;;3.10;;
22929;SDS011;11630;42.660;23.292;2024-02-23T10:58:29;5.70;;;2.63;;
22929;SDS011;11630;42.660;23.292;2024-02-23T11:01:00;2.13;;;1.97;;
22929;SDS011;11630;42.660;23.292;2024-02-23T11:03:32;3.10;;;2.47;;
22929;SDS011;11630;42.660;23.292;2024-02-23T11:06:06;2.77;;;2.37;;
22929;SDS011;11630;42.660;23.292;2024-02-23T11:08:36;4.53;;;1.83;;
22929;SDS011;11630;42.660;23.292;2024-02-23T11:11:12;3.93;;;2.50;;
22929;SDS011;11630;42.660;23.292;2024-02-23T11:13:40;4.03;;;2.63;;
22929;SDS011;11630;42.660;23.292;2024-02-23T11:16:21;2.67;;;2.47;;
22929;SDS011;11630;42.660;23.292;2024-02-23T11:18:45;1.93;;;1.80;;
22929;SDS011;11630;42.660;23.292;2024-02-23T11:21:16;6.07;;;2.17;;
22929;SDS011;11630;42.660;23.292;2024-02-23T11:23:48;2.97;;;1.97;;
22929;SDS011;11630;42.660;23.292;2024-02-23T11:26:18;6.50;;;2.33;;
22929;SDS011;11630;42.660;23.292;2024-02-23T11:28:50;5.00;;;2.77;;
22929;SDS011;11630;42.660;23.292;2024-02-23T11:31:21;3.30;;;2.00;;
22929;SDS011;11630;42.660;23.292;2024-02-23T11:33:53;7.37;;;2.03;;
22929;SDS011;11630;42.660;23.292;2024-02-23T11:36:28;2.93;;;2.50;;
22929;SDS011;11630;42.660;23.292;2024-02-23T11:39:02;5.13;;;2.33;;
22929;SDS011;11630;42.660;23.292;2024-02-23T11:41:33;2.23;;;2.03;;
22929;SDS011;11630;42.660;23.292;2024-02-23T11:44:05;2.37;;;2.07;;
22929;SDS011;11630;42.660;23.292;2024-02-23T11:46:34;6.63;;;2.57;;
22929;SDS011;11630;42.660;23.292;2024-02-23T11:49:05;1.93;;;1.83;;
22929;SDS011;11630;42.660;23.292;2024-02-23T11:51:36;6.37;;;2.50;;
22929;SDS011;11630;42.660;23.292;2024-02-23T11:54:07;8.13;;;1.80;;
22929;SDS011;11630;42.660;23.292;2024-02-23T11:56:39;5.57;;;2.40;;
22929;SDS011;11630;42.660;23.292;2024-02-23T11:59:12;3.23;;;2.07;;
22929;SDS011;11630;42.660;23.292;2024-02-23T12:01:45;2.63;;;2.27;;
22929;SDS011;11630;42.660;23.292;2024-02-23T12:04:15;4.20;;;2.53;;
22929;SDS011;11630;42.660;23.292;2024-02-23T12:06:45;2.30;;;2.00;;
22929;SDS011;11630;42.660;23.292;2024-02-23T12:09:16;4.93;;;2.50;;
22929;SDS011;11630;42.660;23.292;2024-02-23T12:11:46;4.27;;;2.10;;
22929;SDS011;11630;42.660;23.292;2024-02-23T12:14:17;2.97;;;2.07;;
22929;SDS011;11630;42.660;23.292;2024-02-23T12:16:46;2.77;;;2.23;;
22929;SDS011;11630;42.660;23.292;2024-02-23T12:19:18;2.60;;;2.20;;
22929;SDS011;11630;42.660;23.292;2024-02-23T12:21:49;3.93;;;2.23;;
22929;SDS011;11630;42.660;23.292;2024-02-23T12:24:20;2.20;;;2.00;;
22929;SDS011;11630;42.660;23.292;2024-02-23T12:26:56;3.67;;;2.67;;
22929;SDS011;11630;42.660;23.292;2024-02-23T12:29:27;3.87;;;1.80;;
22929;SDS011;11630;42.660;23.292;2024-02-23T12:32:07;5.73;;;3.03;;
22929;SDS011;11630;42.660;23.292;2024-02-23T12:34:37;5.73;;;2.13;;
22929;SDS011;11630;42.660;23.292;2024-02-23T12:37:08;2.80;;;2.03;;
22929;SDS011;11630;42.660;23.292;2024-02-23T12:39:39;2.90;;;1.90;;
22929;SDS011;11630;42.660;23.292;2024-02-23T12:42:11;2.60;;;2.07;;
22929;SDS011;11630;42.660;23.292;2024-02-23T12:44:43;4.50;;;2.40;;
22929;SDS011;11630;42.660;23.292;2024-02-23T12:47:13;4.77;;;2.13;;
22929;SDS011;11630;42.660;23.292;2024-02-23T12:49:45;7.33;;;2.30;;
22929;SDS011;11630;42.660;23.292;2024-02-23T12:52:16;3.13;;;2.37;;
22929;SDS011;11630;42.660;23.292;2024-02-23T12:54:47;3.63;;;2.30;;
22929;SDS011;11630;42.660;23.292;2024-02-23T12:57:18;2.43;;;2.07;;
22929;SDS011;11630;42.660;23.292;2024-02-23T12:59:49;2.53;;;2.23;;
22929;SDS011;11630;42.660;23.292;2024-02-23T13:02:22;2.23;;;2.00;;
22929;SDS011;11630;42.660;23.292;2024-02-23T13:04:53;2.70;;;2.20;;
22929;SDS011;11630;42.660;23.292;2024-02-23T13:07:23;2.70;;;2.20;;
22929;SDS011;11630;42.660;23.292;2024-02-23T13:09:54;2.40;;;2.03;;
22929;SDS011;11630;42.660;23.292;2024-02-23T13:12:25;3.93;;;2.57;;
22929;SDS011;11630;42.660;23.292;2024-02-23T13:14:56;3.33;;;2.00;;
22929;SDS011;11630;42.660;23.292;2024-02-23T13:17:27;3.13;;;1.80;;
22929;SDS011;11630;42.660;23.292;2024-02-23T13:20:02;8.23;;;2.37;;
22929;SDS011;11630;42.660;23.292;2024-02-23T13:22:32;5.90;;;2.20;;
22929;SDS011;11630;42.660;23.292;2024-02-23T13:25:03;3.57;;;2.00;;
22929;SDS011;11630;42.660;23.292;2024-02-23T13:27:35;2.83;;;2.03;;
22929;SDS011;11630;42.660;23.292;2024-02-23T13:30:05;10.97;;;2.90;;
22929;SDS011;11630;42.660;23.292;2024-02-23T13:32:36;2.33;;;2.13;;
22929;SDS011;11630;42.660;23.292;2024-02-23T13:35:07;14.17;;;2.50;;
22929;SDS011;11630;42.660;23.292;2024-02-23T13:37:37;2.23;;;1.90;;
22929;SDS011;11630;42.660;23.292;2024-02-23T13:40:09;12.53;;;3.60;;
22929;SDS011;11630;42.660;23.292;2024-02-23T13:42:39;5.47;;;1.93;;
22929;SDS011;11630;42.660;23.292;2024-02-23T13:45:17;4.27;;;2.10;;
22929;SDS011;11630;42.660;23.292;2024-02-23T13:47:57;2.50;;;2.30;;
22929;SDS011;11630;42.660;23.292;2024-02-23T13:50:31;3.40;;;2.40;;
22929;SDS011;11630;42.660;23.292;2024-02-23T13:53:02;6.33;;;2.40;;
22929;SDS011;11630;42.660;23.292;2024-02-23T13:55:33;7.73;;;2.97;;
22929;SDS011;11630;42.660;23.292;2024-02-23T13:58:04;5.50;;;2.30;;
22929;SDS011;11630;42.660;23.292;2024-02-23T14:00:34;4.17;;;2.03;;
22929;SDS011;11630;42.660;23.292;2024-02-23T14:03:05;2.57;;;2.03;;
22929;SDS011;11630;42.660;23.292;2024-02-23T14:05:36;5.60;;;2.90;;
22929;SDS011;11630;42.660;23.292;2024-02-23T14:08:07;2.43;;;2.17;;
22929;SDS011;11630;42.660;23.292;2024-02-23T14:10:38;3.40;;;2.27;;
22929;SDS011;11630;42.660;23.292;2024-02-23T14:13:08;2.20;;;2.00;;
22929;SDS011;11630;42.660;23.292;2024-02-23T14:15:39;5.47;;;2.53;;
22929;SDS011;11630;42.660;23.292;2024-02-23T14:18:09;7.30;;;2.50;;
22929;SDS011;11630;42.660;23.292;2024-02-23T14:20:40;2.67;;;2.40;;
22929;SDS011;11630;42.660;23.292;2024-02-23T14:23:12;3.07;;;2.10;;
22929;SDS011;11630;42.660;23.292;2024-02-23T14:25:42;2.50;;;2.27;;
22929;SDS011;11630;42.660;23.292;2024-02-23T14:28:13;3.03;;;2.73;;
22929;SDS011;11630;42.660;23.292;2024-02-23T14:30:43;4.00;;;2.37;;
22929;SDS011;11630;42.660;23.292;2024-02-23T14:33:13;4.47;;;2.53;;
22929;SDS011;11630;42.660;23.292;2024-02-23T14:35:46;2.17;;;2.03;;
22929;SDS011;11630;42.660;23.292;2024-02-23T14:38:17;2.80;;;2.60;;
22929;SDS011;11630;42.660;23.292;2024-02-23T14:40:48;5.80;;;2.80;;
22929;SDS011;11630;42.660;23.292;2024-02-23T14:43:18;3.73;;;2.33;;